Time;durP1;ratioP1;P1;durP2;ratioP2;P2;SDS_P1;SDS_P2;PMS_P1;PMS_P2;Temp;Humidity;BMP_temperature;BMP_pressure;BME280_temperature;BME280_humidity;BME280_pressure;Samples;Min_cycle;Max_cycle;Signal;HPM_P1;HPM_P2
2024/01/01 00:00:38;;;;;;;19.10;12.13;;;10.00;99.90;;;;;;6139419;23;20009;-36
2024/01/01 00:03:03;;;;;;;19.73;10.25;;;10.00;99.90;;;;;;6138833;23;20017;-36
2024/01/01 00:05:29;;;;;;;13.77;9.25;;;10.00;99.90;;;;;;6139575;23;20080;-36
2024/01/01 00:07:56;;;;;;;16.13;9.13;;;10.00;99.90;;;;;;6137974;23;20087;-36
2024/01/01 00:10:22;;;;;;;15.93;8.95;;;10.00;99.90;;;;;;6137063;23;20443;-36
2024/01/01 00:12:47;;;;;;;16.50;8.23;;;10.00;99.90;;;;;;6139336;23;19998;-36
2024/01/01 00:15:14;;;;;;;16.85;7.78;;;10.00;99.90;;;;;;6139534;23;20080;-37
2024/01/01 00:17:40;;;;;;;13.77;8.10;;;10.00;99.90;;;;;;6139960;23;20029;-35
2024/01/01 00:20:07;;;;;;;16.88;8.70;;;9.90;99.90;;;;;;6140105;23;20005;-36
2024/01/01 00:22:32;;;;;;;13.30;8.85;;;9.90;99.90;;;;;;6140847;23;20010;-41
2024/01/01 00:24:59;;;;;;;14.98;7.93;;;9.90;99.90;;;;;;6139000;23;20024;-36
2024/01/01 00:27:25;;;;;;;11.95;8.30;;;9.90;99.90;;;;;;6140115;23;20059;-36
2024/01/01 00:29:51;;;;;;;13.48;7.45;;;9.80;99.90;;;;;;6139437;23;20484;-37
2024/01/01 00:32:17;;;;;;;17.10;8.00;;;9.80;99.90;;;;;;6140348;23;20011;-37
2024/01/01 00:34:44;;;;;;;17.23;7.20;;;9.70;99.90;;;;;;6140770;23;20033;-36
2024/01/01 00:37:11;;;;;;;12.48;6.15;;;9.70;99.90;;;;;;6139960;23;20389;-36
2024/01/01 00:39:38;;;;;;;8.80;4.80;;;9.70;99.90;;;;;;6140502;23;20012;-36
2024/01/01 00:42:04;;;;;;;10.48;4.72;;;9.70;99.90;;;;;;6139322;23;20002;-36
2024/01/01 00:44:31;;;;;;;12.18;4.22;;;9.60;99.90;;;;;;6138077;23;20037;-35
2024/01/01 00:46:58;;;;;;;6.20;3.47;;;9.60;99.90;;;;;;6139815;23;20088;-36
2024/01/01 00:49:23;;;;;;;8.15;3.55;;;9.60;99.90;;;;;;6139541;23;20005;-37
2024/01/01 00:51:49;;;;;;;10.55;3.85;;;9.60;99.90;;;;;;6139859;23;20018;-37
2024/01/01 00:54:15;;;;;;;7.78;4.22;;;9.60;99.90;;;;;;6139509;23;20049;-36
2024/01/01 00:56:40;;;;;;;8.90;3.65;;;9.50;99.90;;;;;;6140735;23;20005;-34
2024/01/01 00:59:06;;;;;;;7.28;3.72;;;9.60;99.90;;;;;;6138860;23;20044;-35
2024/01/01 01:01:31;;;;;;;6.30;3.22;;;9.50;99.90;;;;;;6138511;23;20009;-35
2024/01/01 01:03:57;;;;;;;9.70;4.22;;;9.50;99.90;;;;;;6139173;23;20048;-34
2024/01/01 01:06:23;;;;;;;8.77;4.15;;;9.50;99.90;;;;;;6137133;23;20085;-36
2024/01/01 01:08:48;;;;;;;7.63;3.30;;;9.50;99.90;;;;;;6138528;23;20095;-37
2024/01/01 01:11:14;;;;;;;6.00;2.42;;;9.50;99.90;;;;;;6139514;23;20015;-36
2024/01/01 01:13:40;;;;;;;8.32;2.47;;;9.50;99.90;;;;;;6139086;23;20002;-36
2024/01/01 01:16:05;;;;;;;5.38;1.95;;;9.50;99.90;;;;;;6138668;23;20005;-37
2024/01/01 01:18:31;;;;;;;3.58;1.70;;;9.40;99.90;;;;;;6139882;23;20186;-36
2024/01/01 01:20:56;;;;;;;5.18;2.20;;;9.40;99.90;;;;;;6138281;23;20013;-36
2024/01/01 01:23:22;;;;;;;6.38;2.15;;;9.40;99.90;;;;;;6140913;23;20005;-37
2024/01/01 01:25:48;;;;;;;6.88;2.20;;;9.40;99.90;;;;;;6139717;23;20069;-36
2024/01/01 01:28:21;;;;;;;3.90;1.90;;;9.30;99.90;;;;;;6137804;23;20029;-37
2024/01/01 01:30:47;;;;;;;6.28;2.17;;;9.30;99.90;;;;;;6140935;23;20009;-37
2024/01/01 01:33:13;;;;;;;5.82;1.83;;;9.30;99.90;;;;;;6139430;23;20077;-36
2024/01/01 01:35:39;;;;;;;4.95;1.73;;;9.30;99.90;;;;;;6140779;23;20008;-36
2024/01/01 01:38:04;;;;;;;2.17;1.45;;;9.20;99.90;;;;;;6140293;23;20579;-37
2024/01/01 01:40:30;;;;;;;2.60;1.48;;;9.20;99.90;;;;;;6139473;23;20104;-39
2024/01/01 01:42:55;;;;;;;4.95;1.90;;;9.20;99.90;;;;;;6140156;23;20016;-37
2024/01/01 01:45:22;;;;;;;6.15;1.73;;;9.10;99.90;;;;;;6140103;23;20013;-37
2024/01/01 01:47:48;;;;;;;5.40;1.60;;;9.20;99.90;;;;;;6139585;23;20393;-37
2024/01/01 01:50:14;;;;;;;4.25;1.73;;;9.10;99.90;;;;;;6139473;23;20098;-37
2024/01/01 01:52:44;;;;;;;4.25;1.75;;;9.10;99.90;;;;;;6139328;23;20415;-36
2024/01/01 01:55:11;;;;;;;3.35;1.70;;;9.00;99.90;;;;;;6138319;23;20092;-35
2024/01/01 01:57:38;;;;;;;3.15;1.30;;;9.00;99.90;;;;;;6139000;23;20005;-39
2024/01/01 02:00:05;;;;;;;2.60;1.23;;;9.00;99.90;;;;;;6139656;23;20010;-35
2024/01/01 02:02:34;;;;;;;2.58;1.50;;;9.00;99.90;;;;;;6137091;23;20523;-36
2024/01/01 02:05:00;;;;;;;4.72;1.65;;;9.00;99.90;;;;;;6139598;23;20099;-36
2024/01/01 02:07:25;;;;;;;4.00;1.42;;;8.90;99.90;;;;;;6138326;23;20048;-36
2024/01/01 02:09:51;;;;;;;4.45;1.80;;;8.90;99.90;;;;;;6138084;23;20016;-36
2024/01/01 02:12:16;;;;;;;5.53;1.88;;;8.90;99.90;;;;;;6138954;23;20005;-37
2024/01/01 02:14:42;;;;;;;3.58;1.83;;;8.90;99.90;;;;;;6140246;23;20012;-36
2024/01/01 02:17:08;;;;;;;3.75;1.42;;;8.90;99.90;;;;;;6138792;23;20009;-37
2024/01/01 02:19:33;;;;;;;5.75;1.52;;;8.90;99.90;;;;;;6138483;23;20006;-37
2024/01/01 02:21:59;;;;;;;3.83;1.65;;;8.90;99.90;;;;;;6137494;23;20016;-36
2024/01/01 02:24:25;;;;;;;4.60;2.03;;;8.80;99.90;;;;;;6136548;23;20013;-37
2024/01/01 02:26:50;;;;;;;5.03;1.88;;;8.80;99.90;;;;;;6138270;23;20008;-37
2024/01/01 02:29:17;;;;;;;4.63;1.83;;;8.80;99.90;;;;;;6137622;23;20013;-37
2024/01/01 02:31:43;;;;;;;5.97;1.73;;;8.80;99.90;;;;;;6139621;23;20025;-36
2024/01/01 02:34:09;;;;;;;5.82;1.73;;;8.80;99.90;;;;;;6138535;23;20013;-36
2024/01/01 02:36:36;;;;;;;3.38;2.13;;;8.80;99.90;;;;;;6138230;23;20012;-37
2024/01/01 02:39:04;;;;;;;3.78;1.40;;;8.90;99.90;;;;;;6138265;23;20028;-36
2024/01/01 02:41:33;;;;;;;4.80;2.00;;;8.90;99.90;;;;;;6137276;23;20020;-36
2024/01/01 02:43:59;;;;;;;4.25;1.80;;;8.90;99.90;;;;;;6137990;23;20073;-36
2024/01/01 02:46:25;;;;;;;5.78;2.08;;;8.90;99.90;;;;;;6138008;23;20017;-36
2024/01/01 02:48:51;;;;;;;6.95;2.33;;;8.90;99.90;;;;;;6137539;23;20416;-37
2024/01/01 02:51:16;;;;;;;5.50;2.00;;;8.90;99.90;;;;;;6137194;23;20013;-37
2024/01/01 02:53:42;;;;;;;7.63;2.05;;;8.90;99.90;;;;;;6137945;23;20584;-36
2024/01/01 02:56:25;;;;;;;4.55;1.80;;;8.80;99.90;;;;;;6137644;23;20009;-37
2024/01/01 02:58:52;;;;;;;7.95;2.22;;;8.80;99.90;;;;;;6137764;23;20006;-37
2024/01/01 03:01:18;;;;;;;6.10;1.70;;;8.70;99.90;;;;;;6137605;23;20005;-36
2024/01/01 03:03:46;;;;;;;4.50;1.87;;;8.70;99.90;;;;;;6137865;23;20440;-36
2024/01/01 03:06:12;;;;;;;4.60;1.85;;;8.70;99.90;;;;;;6138276;23;20096;-35
2024/01/01 03:08:37;;;;;;;6.28;1.70;;;8.70;99.90;;;;;;6138695;23;20448;-38
2024/01/01 03:11:07;;;;;;;7.78;2.10;;;8.70;99.90;;;;;;6137771;23;20001;-37
2024/01/01 03:13:33;;;;;;;5.20;1.77;;;8.70;99.90;;;;;;6136402;23;20048;-36
2024/01/01 03:16:02;;;;;;;5.82;1.95;;;8.70;99.90;;;;;;6138643;23;20009;-36
2024/01/01 03:18:28;;;;;;;8.05;2.35;;;8.70;99.90;;;;;;6138499;23;20068;-37
2024/01/01 03:20:54;;;;;;;9.27;2.05;;;8.70;99.90;;;;;;6136312;23;20075;-36
2024/01/01 03:23:19;;;;;;;7.32;2.15;;;8.70;99.90;;;;;;6138597;23;20017;-37
2024/01/01 03:25:45;;;;;;;7.22;1.90;;;8.70;99.90;;;;;;6137748;23;20096;-37
2024/01/01 03:28:11;;;;;;;5.65;1.90;;;8.70;99.90;;;;;;6139094;23;20006;-36
2024/01/01 03:30:36;;;;;;;7.18;2.35;;;8.60;99.90;;;;;;6138954;23;20052;-37
2024/01/01 03:33:02;;;;;;;10.45;2.72;;;8.60;99.90;;;;;;6138777;23;20017;-38
2024/01/01 03:35:31;;;;;;;12.20;2.55;;;8.70;99.90;;;;;;6138891;23;20020;-37
2024/01/01 03:38:00;;;;;;;5.47;2.03;;;8.70;99.90;;;;;;6138841;23;20084;-37
2024/01/01 03:40:26;;;;;;;7.95;1.90;;;8.70;99.90;;;;;;6138016;23;20032;-37
2024/01/01 03:42:51;;;;;;;7.15;1.92;;;8.70;99.90;;;;;;6138956;23;20791;-37
2024/01/01 03:45:18;;;;;;;8.60;2.25;;;8.70;99.90;;;;;;6138346;23;20017;-37
2024/01/01 03:47:43;;;;;;;7.05;2.33;;;8.70;99.90;;;;;;6138723;23;20002;-37
2024/01/01 03:50:09;;;;;;;8.63;1.75;;;8.70;99.90;;;;;;6139059;23;20013;-37
2024/01/01 03:52:35;;;;;;;10.45;2.47;;;8.70;99.90;;;;;;6139934;23;20014;-37
2024/01/01 03:55:00;;;;;;;7.25;2.03;;;8.70;99.90;;;;;;6139784;23;20325;-37
2024/01/01 03:57:26;;;;;;;5.45;1.77;;;8.70;99.90;;;;;;6140298;23;20337;-37
2024/01/01 03:59:52;;;;;;;5.78;1.75;;;8.70;99.90;;;;;;6140776;23;20089;-37
2024/01/01 04:02:18;;;;;;;6.97;1.98;;;8.80;99.90;;;;;;6138452;23;20096;-36
2024/01/01 04:04:44;;;;;;;11.20;2.47;;;8.80;99.90;;;;;;6141258;23;20025;-37
2024/01/01 04:07:10;;;;;;;8.45;1.90;;;8.80;99.90;;;;;;6140975;23;20451;-37
2024/01/01 04:09:36;;;;;;;8.38;1.92;;;8.70;99.90;;;;;;6139579;23;20005;-37
2024/01/01 04:12:01;;;;;;;8.35;2.38;;;8.80;99.90;;;;;;6140053;23;20009;-38
2024/01/01 04:14:27;;;;;;;9.27;2.10;;;8.80;99.90;;;;;;6141087;23;20927;-37
2024/01/01 04:16:52;;;;;;;9.55;1.80;;;8.80;99.90;;;;;;6139890;23;20427;-37
2024/01/01 04:19:18;;;;;;;10.48;2.00;;;8.80;99.90;;;;;;6140274;23;20033;-37
2024/01/01 04:21:43;;;;;;;11.52;2.78;;;8.70;99.90;;;;;;6141718;23;20033;-36
2024/01/01 04:24:10;;;;;;;7.95;1.90;;;8.80;99.90;;;;;;6139993;23;20314;-37
2024/01/01 04:26:38;;;;;;;9.60;2.00;;;8.70;99.90;;;;;;6141151;23;20089;-38
2024/01/01 04:29:04;;;;;;;5.53;1.70;;;8.80;99.90;;;;;;6140436;23;20010;-37
2024/01/01 04:31:29;;;;;;;7.03;1.83;;;8.80;99.90;;;;;;6140954;23;20495;-38
2024/01/01 04:33:58;;;;;;;8.07;1.90;;;8.80;99.90;;;;;;6139451;23;20440;-37
2024/01/01 04:36:23;;;;;;;8.23;2.67;;;8.90;99.90;;;;;;6139602;23;20005;-37
2024/01/01 04:38:49;;;;;;;9.10;2.22;;;8.90;99.90;;;;;;6141788;23;20802;-37
2024/01/01 04:41:14;;;;;;;11.10;3.15;;;8.90;99.90;;;;;;6140895;23;20417;-37
2024/01/01 04:43:40;;;;;;;7.90;2.10;;;8.90;99.90;;;;;;6139983;23;20021;-37
2024/01/01 04:46:07;;;;;;;11.88;2.83;;;8.90;99.90;;;;;;6140733;23;20052;-36
2024/01/01 04:48:34;;;;;;;10.52;2.03;;;8.90;99.90;;;;;;6140459;23;20009;-37
2024/01/01 04:51:00;;;;;;;9.93;2.13;;;8.90;99.90;;;;;;6138366;23;20006;-36
2024/01/01 04:53:25;;;;;;;8.57;2.33;;;8.90;99.90;;;;;;6140388;23;20012;-37
2024/01/01 04:55:51;;;;;;;10.25;2.25;;;8.90;99.90;;;;;;6140876;23;20088;-37
2024/01/01 04:58:16;;;;;;;9.30;2.03;;;8.80;99.90;;;;;;6139044;23;20005;-41
2024/01/01 05:00:42;;;;;;;8.10;1.95;;;8.80;99.90;;;;;;6140104;23;20005;-44
2024/01/01 05:03:08;;;;;;;9.07;2.25;;;8.80;99.90;;;;;;6138971;23;20021;-37
2024/01/01 05:05:33;;;;;;;9.02;1.95;;;8.80;99.90;;;;;;6138185;23;20018;-37
2024/01/01 05:07:59;;;;;;;6.47;1.83;;;8.80;99.90;;;;;;6139420;23;20636;-37
2024/01/01 05:10:24;;;;;;;9.73;2.33;;;8.80;99.90;;;;;;6139566;23;20332;-37
2024/01/01 05:12:50;;;;;;;11.23;2.47;;;8.80;99.90;;;;;;6137596;23;20096;-37
2024/01/01 05:15:15;;;;;;;10.00;2.80;;;8.70;99.90;;;;;;6138882;23;20009;-37
2024/01/01 05:17:41;;;;;;;12.57;2.13;;;8.70;99.90;;;;;;6140211;23;20001;-37
2024/01/01 05:20:07;;;;;;;11.02;2.05;;;8.70;99.90;;;;;;6139233;23;20005;-38
2024/01/01 05:22:33;;;;;;;8.07;1.80;;;8.70;99.90;;;;;;6140843;23;20025;-38
2024/01/01 05:24:58;;;;;;;9.38;1.92;;;8.60;99.90;;;;;;6139139;23;20044;-38
2024/01/01 05:27:25;;;;;;;8.30;2.15;;;8.60;99.90;;;;;;6138381;23;20013;-37
2024/01/01 05:29:51;;;;;;;7.57;1.88;;;8.60;99.90;;;;;;6140630;23;20123;-40
2024/01/01 05:32:17;;;;;;;13.82;2.53;;;8.60;99.90;;;;;;6139115;23;20381;-37
2024/01/01 05:34:43;;;;;;;11.52;2.17;;;8.60;99.90;;;;;;6139772;23;20075;-39
2024/01/01 05:37:11;;;;;;;10.00;2.55;;;8.60;99.90;;;;;;6139985;23;20012;-37
2024/01/01 05:39:37;;;;;;;10.93;3.03;;;8.60;99.90;;;;;;6139616;23;20009;-37
2024/01/01 05:42:03;;;;;;;9.57;2.13;;;8.60;99.90;;;;;;6139657;23;20009;-37
2024/01/01 05:44:29;;;;;;;7.53;2.03;;;8.60;99.90;;;;;;6139258;23;20076;-37
2024/01/01 05:46:55;;;;;;;7.90;2.05;;;8.60;99.90;;;;;;6138091;23;20008;-37
2024/01/01 05:49:23;;;;;;;6.93;1.83;;;8.50;99.90;;;;;;6138581;23;20012;-36
2024/01/01 05:51:49;;;;;;;7.90;2.22;;;8.50;99.90;;;;;;6139618;23;20001;-37
2024/01/01 05:54:17;;;;;;;10.52;2.30;;;8.50;99.90;;;;;;6140051;23;20698;-37
2024/01/01 05:56:44;;;;;;;9.32;2.03;;;8.50;99.90;;;;;;6140424;23;20017;-37
2024/01/01 05:59:09;;;;;;;7.72;2.10;;;8.50;99.90;;;;;;6138963;23;20010;-37
2024/01/01 06:01:35;;;;;;;8.57;2.05;;;8.50;99.90;;;;;;6137410;23;20792;-37
2024/01/01 06:04:00;;;;;;;7.05;2.25;;;8.50;99.90;;;;;;6139296;23;20060;-46
2024/01/01 06:06:26;;;;;;;12.80;2.33;;;8.50;99.90;;;;;;6140023;23;20044;-37
2024/01/01 06:08:52;;;;;;;8.95;2.20;;;8.50;99.90;;;;;;6139212;23;20660;-37
2024/01/01 06:11:18;;;;;;;6.45;1.60;;;8.50;99.90;;;;;;6140083;23;20010;-37
2024/01/01 06:13:45;;;;;;;10.70;2.50;;;8.50;99.90;;;;;;6139469;23;20511;-37
2024/01/01 06:16:11;;;;;;;10.48;2.17;;;8.40;99.90;;;;;;6139322;23;20005;-38
2024/01/01 06:18:36;;;;;;;7.90;2.00;;;8.40;99.90;;;;;;6139662;23;20006;-37
2024/01/01 06:21:05;;;;;;;6.68;1.70;;;8.40;99.90;;;;;;6139178;23;20068;-37
2024/01/01 06:23:31;;;;;;;12.18;2.13;;;8.40;99.90;;;;;;6138571;23;20005;-37
2024/01/01 06:25:56;;;;;;;10.65;2.50;;;8.40;99.90;;;;;;6138703;23;20119;-37
2024/01/01 06:28:22;;;;;;;9.20;1.85;;;8.40;99.90;;;;;;6138121;23;20013;-38
2024/01/01 06:30:51;;;;;;;8.40;2.25;;;8.40;99.90;;;;;;6138228;23;20037;-37
2024/01/01 06:33:17;;;;;;;9.07;1.80;;;8.40;99.90;;;;;;6138048;23;20096;-37
2024/01/01 06:35:42;;;;;;;10.93;2.10;;;8.40;99.90;;;;;;6137183;23;20116;-37
2024/01/01 06:38:08;;;;;;;9.48;1.88;;;8.40;99.90;;;;;;6138416;23;20087;-37
2024/01/01 06:40:33;;;;;;;7.28;2.20;;;8.30;99.90;;;;;;6138566;23;20369;-37
2024/01/01 06:42:59;;;;;;;8.98;2.30;;;8.30;99.90;;;;;;6137605;23;20069;-37
2024/01/01 06:45:24;;;;;;;9.90;2.38;;;8.40;99.90;;;;;;6137314;23;20021;-37
2024/01/01 06:47:53;;;;;;;7.80;2.25;;;8.40;99.90;;;;;;6138279;23;20006;-38
2024/01/01 06:50:19;;;;;;;5.43;1.92;;;8.40;99.90;;;;;;6136436;23;20119;-37
2024/01/01 06:52:45;;;;;;;9.00;2.20;;;8.40;99.90;;;;;;6138228;23;20451;-37
2024/01/01 06:55:11;;;;;;;9.15;2.00;;;8.40;99.90;;;;;;6137960;23;20088;-37
2024/01/01 06:57:36;;;;;;;8.45;2.10;;;8.40;99.90;;;;;;6137836;23;20109;-36
2024/01/01 07:00:03;;;;;;;12.18;2.33;;;8.40;99.90;;;;;;6138817;23;20009;-37
2024/01/01 07:02:28;;;;;;;13.75;2.55;;;8.40;99.90;;;;;;6138232;23;20792;-37
2024/01/01 07:04:54;;;;;;;8.05;2.60;;;8.40;99.90;;;;;;6137297;23;20047;-37
2024/01/01 07:07:25;;;;;;;5.63;1.98;;;8.40;99.90;;;;;;6138017;23;20417;-37
2024/01/01 07:09:51;;;;;;;12.20;2.58;;;8.40;99.90;;;;;;6138938;23;20009;-37
2024/01/01 07:12:27;;;;;;;7.28;1.92;;;8.40;99.90;;;;;;6138070;23;20002;-36
2024/01/01 07:14:55;;;;;;;14.30;2.28;;;8.40;99.90;;;;;;6137897;23;20949;-37
2024/01/01 07:17:21;;;;;;;10.63;2.40;;;8.40;99.90;;;;;;6137846;23;20088;-37
2024/01/01 07:19:47;;;;;;;9.35;1.90;;;8.40;99.90;;;;;;6137554;23;20009;-37
2024/01/01 07:22:13;;;;;;;10.77;2.38;;;8.40;99.90;;;;;;6138352;23;20079;-37
2024/01/01 07:24:39;;;;;;;7.82;2.28;;;8.40;99.90;;;;;;6135980;23;20041;-37
2024/01/01 07:27:05;;;;;;;6.82;2.20;;;8.40;99.90;;;;;;6137797;23;20009;-37
2024/01/01 07:29:31;;;;;;;8.65;2.53;;;8.40;99.90;;;;;;6137807;23;20008;-37
2024/01/01 07:31:57;;;;;;;12.50;3.22;;;8.40;99.90;;;;;;6137451;23;20016;-37
2024/01/01 07:34:24;;;;;;;10.45;2.42;;;8.40;99.90;;;;;;6138133;23;20005;-37
2024/01/01 07:36:50;;;;;;;7.45;2.40;;;8.40;99.90;;;;;;6139134;23;20016;-36
2024/01/01 07:39:19;;;;;;;9.80;3.08;;;8.40;99.90;;;;;;6136517;23;20513;-35
2024/01/01 07:41:45;;;;;;;7.05;2.55;;;8.40;99.90;;;;;;6138087;23;20009;-37
2024/01/01 07:44:11;;;;;;;7.97;2.47;;;8.40;99.90;;;;;;6138702;23;20009;-38
2024/01/01 07:46:36;;;;;;;10.27;3.30;;;8.40;99.90;;;;;;6136784;23;20121;-37
2024/01/01 07:49:05;;;;;;;10.43;3.00;;;8.40;99.90;;;;;;6138077;23;20337;-36
2024/01/01 07:51:31;;;;;;;8.57;2.20;;;8.40;99.90;;;;;;6138841;23;20111;-37
2024/01/01 07:53:56;;;;;;;8.73;2.67;;;8.40;99.90;;;;;;6138220;23;20025;-36
2024/01/01 07:56:22;;;;;;;13.35;3.20;;;8.40;99.90;;;;;;6138818;23;20037;-36
2024/01/01 07:58:48;;;;;;;10.85;2.72;;;8.40;99.90;;;;;;6138030;23;20088;-36
2024/01/01 08:01:16;;;;;;;11.20;2.67;;;8.40;99.90;;;;;;6137024;23;20060;-36
2024/01/01 08:03:42;;;;;;;13.85;3.35;;;8.30;99.90;;;;;;6137132;23;20018;-37
2024/01/01 08:06:07;;;;;;;12.82;2.97;;;8.30;99.90;;;;;;6137646;23;20013;-36
2024/01/01 08:08:33;;;;;;;7.85;2.63;;;8.30;99.90;;;;;;6138008;23;20826;-35
2024/01/01 08:10:58;;;;;;;8.98;2.25;;;8.30;99.90;;;;;;6138794;23;20009;-37
2024/01/01 08:13:24;;;;;;;6.85;2.70;;;8.40;99.90;;;;;;6138623;23;20005;-36
2024/01/01 08:15:53;;;;;;;7.05;2.63;;;8.40;99.90;;;;;;6136973;23;20005;-37
2024/01/01 08:18:18;;;;;;;8.00;2.15;;;8.40;99.90;;;;;;6138800;23;20138;-35
2024/01/01 08:20:44;;;;;;;10.73;3.00;;;8.40;99.90;;;;;;6138550;23;20512;-36
2024/01/01 08:23:10;;;;;;;10.50;3.28;;;8.40;99.90;;;;;;6137203;23;20893;-36
2024/01/01 08:25:37;;;;;;;10.30;2.70;;;8.40;99.90;;;;;;6138619;23;20021;-36
2024/01/01 08:28:02;;;;;;;12.02;2.70;;;8.50;99.90;;;;;;6137156;23;20460;-37
2024/01/01 08:30:28;;;;;;;5.78;2.65;;;8.50;99.90;;;;;;6138791;23;20006;-45
2024/01/01 08:32:54;;;;;;;8.77;2.22;;;8.50;99.90;;;;;;6138469;23;20457;-37
2024/01/01 08:35:20;;;;;;;11.77;3.20;;;8.50;99.90;;;;;;6136659;23;20008;-37
2024/01/01 08:37:47;;;;;;;6.18;2.20;;;8.50;99.90;;;;;;6140528;23;20492;-40
2024/01/01 08:40:13;;;;;;;11.55;2.40;;;8.50;99.90;;;;;;6140333;23;20312;-37
2024/01/01 08:42:39;;;;;;;9.57;2.88;;;8.50;99.90;;;;;;6139688;23;20013;-37
2024/01/01 08:45:05;;;;;;;8.98;2.78;;;8.50;99.90;;;;;;6139690;23;20021;-37
2024/01/01 08:47:30;;;;;;;9.82;3.13;;;8.40;99.90;;;;;;6139993;23;20013;-37
2024/01/01 08:49:56;;;;;;;7.20;2.40;;;8.40;99.90;;;;;;6138813;23;20012;-37
2024/01/01 08:52:22;;;;;;;11.85;3.00;;;8.50;99.90;;;;;;6138674;23;20009;-37
2024/01/01 08:54:48;;;;;;;7.88;2.80;;;8.40;99.90;;;;;;6139974;23;20068;-38
2024/01/01 08:57:17;;;;;;;8.65;2.63;;;8.40;99.90;;;;;;6139093;23;20009;-37
2024/01/01 08:59:42;;;;;;;8.70;2.50;;;8.40;99.90;;;;;;6140667;23;20403;-37
2024/01/01 09:02:09;;;;;;;13.70;2.60;;;8.40;99.90;;;;;;6138111;23;20105;-38
2024/01/01 09:04:34;;;;;;;10.77;2.88;;;8.40;99.90;;;;;;6139604;23;20017;-39
2024/01/01 09:07:02;;;;;;;8.73;2.40;;;8.40;99.90;;;;;;6139740;23;20010;-38
2024/01/01 09:09:28;;;;;;;6.93;2.85;;;8.40;99.90;;;;;;6140165;23;20017;-38
2024/01/01 09:11:55;;;;;;;10.18;3.28;;;8.30;99.90;;;;;;6138972;23;20009;-38
2024/01/01 09:14:20;;;;;;;9.20;3.10;;;8.30;99.90;;;;;;6139718;23;20782;-38
2024/01/01 09:16:47;;;;;;;7.55;2.60;;;8.30;99.90;;;;;;6112766;23;20013;-35
2024/01/01 09:19:14;;;;;;;7.68;2.58;;;8.30;99.90;;;;;;6138311;23;20006;-37
2024/01/01 09:21:40;;;;;;;7.50;2.70;;;8.30;99.90;;;;;;6139720;23;20009;-36
2024/01/01 09:24:09;;;;;;;9.40;3.13;;;8.30;99.90;;;;;;6139857;23;20060;-36
2024/01/01 09:26:35;;;;;;;8.68;2.70;;;8.20;99.90;;;;;;6162249;23;20727;-36
2024/01/01 09:29:01;;;;;;;8.00;2.58;;;8.20;99.90;;;;;;6139974;23;20010;-36
2024/01/01 09:31:27;;;;;;;7.32;2.22;;;8.20;99.90;;;;;;6139291;23;20013;-39
2024/01/01 09:33:55;;;;;;;6.38;2.33;;;8.20;99.90;;;;;;6139547;23;20002;-37
2024/01/01 09:36:21;;;;;;;6.88;2.75;;;8.20;99.90;;;;;;6139863;23;20013;-38
2024/01/01 09:38:46;;;;;;;7.93;2.33;;;8.30;99.90;;;;;;6138662;23;20253;-37
2024/01/01 09:41:12;;;;;;;11.23;2.30;;;8.30;99.90;;;;;;6138932;23;20002;-38
2024/01/01 09:43:44;;;;;;;8.77;2.42;;;8.40;99.90;;;;;;6140115;23;20005;-37
2024/01/01 09:46:10;;;;;;;11.73;2.93;;;8.50;99.90;;;;;;6140036;23;20087;-38
2024/01/01 09:48:36;;;;;;;7.22;2.10;;;8.50;99.90;;;;;;6139264;23;20229;-37
2024/01/01 09:51:03;;;;;;;7.70;2.25;;;8.50;99.90;;;;;;6139860;23;20012;-40
2024/01/01 09:53:30;;;;;;;7.00;2.13;;;8.50;99.90;;;;;;6138552;23;20029;-38
2024/01/01 09:55:56;;;;;;;6.68;1.90;;;8.50;99.90;;;;;;6139755;23;20005;-37
2024/01/01 09:58:22;;;;;;;5.15;2.08;;;8.60;99.90;;;;;;6139380;23;20632;-38
2024/01/01 10:00:48;;;;;;;5.18;1.75;;;8.50;99.90;;;;;;6138417;23;20009;-37
2024/01/01 10:03:14;;;;;;;8.10;2.35;;;8.50;99.90;;;;;;6138276;23;20017;-35
2024/01/01 10:05:44;;;;;;;5.57;1.83;;;8.50;99.90;;;;;;6139601;23;20017;-36
2024/01/01 10:08:14;;;;;;;6.03;1.70;;;8.50;99.90;;;;;;6137425;23;20009;-36
2024/01/01 10:10:41;;;;;;;4.57;2.08;;;8.50;99.90;;;;;;6138779;23;20014;-37
2024/01/01 10:13:16;;;;;;;4.57;2.03;;;8.50;99.90;;;;;;6135115;23;20012;-38
2024/01/01 10:15:43;;;;;;;3.63;1.50;;;8.50;99.90;;;;;;6137606;23;20005;-37
2024/01/01 10:18:18;;;;;;;7.78;2.20;;;8.60;99.90;;;;;;6138000;23;20005;-37
2024/01/01 10:20:46;;;;;;;3.55;1.40;;;8.60;99.90;;;;;;6137979;23;20010;-37
2024/01/01 10:23:25;;;;;;;5.82;1.73;;;8.60;99.90;;;;;;6137201;23;20005;-36
2024/01/01 10:26:04;;;;;;;5.55;1.60;;;8.60;99.90;;;;;;6137871;23;20029;-36
2024/01/01 10:28:34;;;;;;;4.57;1.70;;;8.60;99.90;;;;;;6137666;23;19997;-37
2024/01/01 10:31:03;;;;;;;5.57;1.63;;;8.60;99.90;;;;;;6138217;23;20500;-37
2024/01/01 10:33:31;;;;;;;3.88;1.60;;;8.60;99.90;;;;;;6137345;23;20002;-37
2024/01/01 10:35:59;;;;;;;5.07;1.65;;;8.60;99.90;;;;;;6136519;23;20704;-37
2024/01/01 10:38:27;;;;;;;6.18;1.70;;;8.70;99.90;;;;;;6137804;23;20005;-38
2024/01/01 10:40:56;;;;;;;3.10;1.30;;;8.60;99.90;;;;;;6138088;23;20012;-37
2024/01/01 10:43:25;;;;;;;6.22;2.10;;;8.60;99.90;;;;;;6138636;23;20716;-38
2024/01/01 10:46:06;;;;;;;4.35;1.73;;;8.60;99.90;;;;;;6138044;23;20112;-40
2024/01/01 10:48:33;;;;;;;5.97;1.80;;;8.60;99.90;;;;;;6138491;23;20392;-38
2024/01/01 10:51:41;;;;;;;5.93;2.03;;;8.60;99.90;;;;;;6138465;23;20452;-38
2024/01/01 10:54:38;;;;;;;4.82;1.60;;;8.70;99.90;;;;;;6137947;23;20037;-37
2024/01/01 10:57:12;;;;;;;5.63;1.85;;;8.70;99.90;;;;;;6137166;23;20005;-37
2024/01/01 11:00:01;;;;;;;4.50;1.55;;;8.70;99.90;;;;;;6138416;23;20006;-37
2024/01/01 11:02:27;;;;;;;5.13;1.35;;;8.70;99.90;;;;;;6138224;23;20109;-38
2024/01/01 11:05:30;;;;;;;2.30;1.52;;;8.80;99.90;;;;;;6137993;23;20010;-38
2024/01/01 11:07:58;;;;;;;7.18;1.92;;;9.00;99.90;;;;;;6091321;23;20739;-38
2024/01/01 11:10:44;;;;;;;4.60;1.52;;;9.20;99.90;;;;;;6136886;23;20005;-38
2024/01/01 11:13:30;;;;;;;5.53;1.40;;;9.30;99.90;;;;;;6138412;23;20005;-38
2024/01/01 11:16:03;;;;;;;6.72;1.70;;;9.30;99.90;;;;;;6137682;23;20131;-37
2024/01/01 11:18:33;;;;;;;6.63;1.95;;;9.30;99.90;;;;;;6137430;23;20024;-38
2024/01/01 11:21:06;;;;;;;6.60;1.70;;;9.30;99.90;;;;;;6138913;23;20361;-38
2024/01/01 11:23:42;;;;;;;2.78;1.35;;;9.20;99.90;;;;;;6138378;23;20009;-38
2024/01/01 11:26:22;;;;;;;3.50;1.83;;;9.20;99.90;;;;;;6137166;23;20079;-38
2024/01/01 11:28:53;;;;;;;7.75;1.90;;;9.10;99.90;;;;;;6138203;23;20037;-37
2024/01/01 11:31:19;;;;;;;3.70;1.75;;;9.00;99.90;;;;;;6137088;23;20005;-37
2024/01/01 11:33:45;;;;;;;5.20;1.90;;;8.90;99.90;;;;;;6137936;23;20010;-38
2024/01/01 11:36:11;;;;;;;5.63;2.05;;;8.90;99.90;;;;;;6137547;23;20013;-38
2024/01/01 11:38:40;;;;;;;4.90;1.30;;;8.80;99.90;;;;;;6138107;23;20814;-38
2024/01/01 11:41:06;;;;;;;3.83;1.70;;;8.90;99.90;;;;;;6138009;23;20005;-38
2024/01/01 11:43:33;;;;;;;4.93;1.75;;;8.90;99.90;;;;;;6138007;23;20056;-38
2024/01/01 11:46:25;;;;;;;5.20;1.35;;;8.90;99.90;;;;;;6136701;23;20013;-38
2024/01/01 11:49:00;;;;;;;6.88;1.60;;;9.00;99.90;;;;;;6126575;23;20017;-38
2024/01/01 11:51:29;;;;;;;3.72;1.45;;;9.00;99.90;;;;;;6138799;23;20005;-37
2024/01/01 11:54:08;;;;;;;3.15;1.50;;;9.00;99.90;;;;;;6137605;23;20051;-38
2024/01/01 11:56:35;;;;;;;5.25;2.08;;;9.00;99.90;;;;;;6138404;23;20416;-38
2024/01/01 11:59:07;;;;;;;6.15;2.50;;;9.00;99.90;;;;;;6137280;23;20389;-36
2024/01/01 12:01:40;;;;;;;5.85;1.70;;;9.00;99.90;;;;;;6138313;23;20512;-37
2024/01/01 12:04:06;;;;;;;;;;;9.00;99.90;;;;;;6138838;23;20458;-37
2024/01/01 12:06:33;;;;;;;5.60;1.50;;;9.00;99.90;;;;;;6138492;23;20516;-37
2024/01/01 12:09:11;;;;;;;5.40;1.70;;;8.90;99.90;;;;;;6136569;23;20005;-37
2024/01/01 12:11:44;;;;;;;6.60;2.05;;;8.90;99.90;;;;;;6139031;23;20001;-36
2024/01/01 12:14:09;;;;;;;;;;;8.90;99.90;;;;;;6139269;23;20275;-37
2024/01/01 12:16:36;;;;;;;5.07;1.50;;;8.90;99.90;;;;;;6140608;23;20320;-37
2024/01/01 12:19:12;;;;;;;5.95;1.70;;;8.90;99.90;;;;;;6139661;23;20009;-38
2024/01/01 12:21:45;;;;;;;5.80;1.80;;;8.90;99.90;;;;;;6139617;23;20005;-37
2024/01/01 12:24:16;;;;;;;8.13;2.20;;;8.80;99.90;;;;;;6139538;23;20010;-37
2024/01/01 12:26:44;;;;;;;6.55;1.80;;;8.80;99.90;;;;;;6140638;23;20012;-37
2024/01/01 12:29:12;;;;;;;8.88;1.80;;;8.80;99.90;;;;;;6139277;23;20087;-37
2024/01/01 12:31:39;;;;;;;7.60;1.58;;;8.80;99.90;;;;;;6140470;23;20005;-37
2024/01/01 12:34:09;;;;;;;10.65;2.10;;;8.80;99.90;;;;;;6139058;23;20009;-37
2024/01/01 12:36:35;;;;;;;4.03;1.55;;;8.90;99.90;;;;;;6140380;23;20005;-37
2024/01/01 12:39:02;;;;;;;8.35;1.92;;;9.10;99.90;;;;;;6138906;23;20041;-37
2024/01/01 12:41:28;;;;;;;6.90;1.65;;;9.30;99.90;;;;;;6139868;23;20759;-36
2024/01/01 12:43:55;;;;;;;6.20;2.00;;;9.40;99.90;;;;;;6139408;23;20008;-36
2024/01/01 12:46:20;;;;;;;10.75;2.10;;;9.60;99.90;;;;;;6139959;23;20043;-37
2024/01/01 12:48:47;;;;;;;10.95;2.47;;;9.60;99.90;;;;;;6140925;23;20336;-43
2024/01/01 12:51:18;;;;;;;10.27;2.20;;;9.70;99.90;;;;;;6139949;23;20015;-37
2024/01/01 12:53:45;;;;;;;13.23;3.08;;;9.70;99.90;;;;;;6140831;23;20076;-37
2024/01/01 12:56:11;;;;;;;14.23;2.92;;;9.70;99.90;;;;;;6139316;23;20009;-37